Time,TemperatureF,DewpointF,PressureIn,WindDirection,WindDirectionDegrees,WindSpeedMPH,WindSpeedGustMPH,Humidity,HourlyPrecipIn,Conditions,Clouds,dailyrainin,SoftwareType,DateUTC
2013-09-18 00:00:00,69.0,61.8,29.41,SE,137,8.0,13.0,78,0.00,,,0.00,VWS V14.01,2013-09-18 05:00:00,
2013-09-18 00:01:00,66.8,61.0,29.44,SE,145,12.0,12.0,82,0.00,,,0.00,VWS V14.01,2013-09-18 05:01:00,
2013-09-18 00:06:00,66.8,61.0,29.44,SSE,153,8.0,14.0,82,0.00,,,0.00,VWS V14.01,2013-09-18 05:06:00,
2013-09-18 00:11:00,66.7,60.9,29.44,SE,136,8.0,14.0,82,0.00,,,0.00,VWS V14.01,2013-09-18 05:11:00,
2013-09-18 00:15:00,68.8,61.6,29.44,SE,135,5.0,13.0,78,0.00,,,0.00,VWS V14.01,2013-09-18 05:15:00,
2013-09-18 00:16:00,66.6,60.8,29.44,SE,137,5.0,11.0,82,0.00,,,0.00,VWS V14.01,2013-09-18 05:16:00,
2013-09-18 00:21:00,66.4,61.0,29.43,South,178,7.0,11.0,83,0.00,,,0.00,VWS V14.01,2013-09-18 05:21:00,
2013-09-18 00:26:00,66.2,60.8,29.43,SSE,157,10.0,13.0,83,0.00,,,0.00,VWS V14.01,2013-09-18 05:26:00,
2013-09-18 00:30:00,68.2,61.7,29.45,SE,144,9.0,15.0,80,0.00,,,0.00,VWS V14.01,2013-09-18 05:30:00,
2013-09-18 00:31:00,66.1,60.7,29.43,SE,140,11.0,11.0,83,0.00,,,0.00,VWS V14.01,2013-09-18 05:31:00,
2013-09-18 00:36:00,65.9,60.8,29.44,SSE,147,9.0,14.0,84,0.00,,,0.00,VWS V14.01,2013-09-18 05:36:00,
2013-09-18 00:41:00,65.8,60.7,29.43,SE,130,9.0,15.0,84,0.00,,,0.00,VWS V14.01,2013-09-18 05:41:00,
2013-09-18 00:45:00,67.5,61.4,29.45,SSE,161,10.0,16.0,81,0.00,,,0.00,VWS V14.01,2013-09-18 05:45:00,
2013-09-18 00:46:00,65.6,60.5,29.42,SE,143,11.0,12.0,84,0.00,,,0.00,VWS V14.01,2013-09-18 05:46:00,
2013-09-18 00:51:00,65.5,60.4,29.42,SSE,158,9.0,15.0,84,0.00,,,0.00,VWS V14.01,2013-09-18 05:51:00,
2013-09-18 00:56:00,65.4,60.7,29.43,SE,134,8.0,15.0,85,0.00,,,0.00,VWS V14.01,2013-09-18 05:56:00,
2013-09-18 01:00:00,66.9,61.1,29.45,SE,134,8.0,15.0,82,0.00,,,0.00,VWS V14.01,2013-09-18 06:00:00,
2013-09-18 01:01:00,65.3,60.6,29.43,SE,134,7.0,14.0,85,0.00,,,0.00,VWS V14.01,2013-09-18 06:01:00,
2013-09-18 01:06:00,65.3,60.6,29.43,SSE,147,13.0,17.0,85,0.00,,,0.00,VWS V14.01,2013-09-18 06:06:00,
2013-09-18 01:11:00,65.4,60.7,29.44,SSE,167,9.0,22.0,85,0.00,,,0.00,VWS V14.01,2013-09-18 06:11:00,
2013-09-18 01:15:00,66.7,60.9,29.43,SSE,147,8.0,15.0,82,0.00,,,0.00,VWS V14.01,2013-09-18 06:15:00,
2013-09-18 01:16:00,65.4,60.3,29.44,East,93,5.0,13.0,84,0.00,,,0.00,VWS V14.01,2013-09-18 06:16:00,
2013-09-18 01:21:00,65.3,60.6,29.44,South,190,8.0,19.0,85,0.00,,,0.00,VWS V14.01,2013-09-18 06:21:00,
2013-09-18 01:26:00,65.2,60.5,29.45,SSE,159,7.0,19.0,85,0.00,,,0.00,VWS V14.01,2013-09-18 06:26:00,
2013-09-18 01:30:00,66.1,60.7,29.43,SSE,154,10.0,15.0,83,0.00,,,0.00,VWS V14.01,2013-09-18 06:30:00,
2013-09-18 01:31:00,65.2,60.5,29.47,South,185,7.0,13.0,85,0.00,,,0.00,VWS V14.01,2013-09-18 06:31:00,
2013-09-18 01:36:00,65.0,60.3,29.47,South,180,3.0,22.0,85,0.00,,,0.00,VWS V14.01,2013-09-18 06:36:00,
2013-09-18 01:41:00,64.9,60.2,29.46,South,182,10.0,22.0,85,0.00,,,0.00,VWS V14.01,2013-09-18 06:41:00,
2013-09-18 01:45:00,65.6,60.5,29.43,South,183,9.0,15.0,84,0.00,,,0.00,VWS V14.01,2013-09-18 06:45:00,
2013-09-18 01:46:00,64.9,60.5,29.46,SSE,149,8.0,21.0,86,0.00,,,0.00,VWS V14.01,2013-09-18 06:46:00,
2013-09-18 01:51:00,64.9,60.5,29.46,SSE,165,7.0,21.0,86,0.00,,,0.00,VWS V14.01,2013-09-18 06:51:00,
2013-09-18 01:56:00,64.8,60.4,29.46,South,172,5.0,21.0,86,0.00,,,0.00,VWS V14.01,2013-09-18 06:56:00,
2013-09-18 02:00:00,65.4,60.7,29.43,SSE,159,10.0,15.0,85,0.00,,,0.00,VWS V14.01,2013-09-18 07:00:00,
2013-09-18 02:01:00,64.8,60.4,29.45,SE,146,8.0,16.0,86,0.00,,,0.00,VWS V14.01,2013-09-18 07:01:00,
2013-09-18 02:06:00,64.7,60.3,29.45,SSE,159,8.0,16.0,86,0.00,,,0.00,VWS V14.01,2013-09-18 07:06:00,
2013-09-18 02:11:00,64.7,60.7,29.45,SSE,155,5.0,16.0,87,0.00,,,0.00,VWS V14.01,2013-09-18 07:11:00,
2013-09-18 02:15:00,65.4,60.3,29.44,SE,143,9.0,22.0,84,0.00,,,0.00,VWS V14.01,2013-09-18 07:15:00,
2013-09-18 02:16:00,64.8,60.8,29.44,SE,142,8.0,9.0,87,0.00,,,0.00,VWS V14.01,2013-09-18 07:16:00,
2013-09-18 02:21:00,64.7,60.7,29.44,SSE,149,2.0,9.0,87,0.00,,,0.00,VWS V14.01,2013-09-18 07:21:00,
2013-09-18 02:26:00,64.7,60.7,29.44,SSE,153,5.0,9.0,87,0.00,,,0.00,VWS V14.01,2013-09-18 07:26:00,
2013-09-18 02:30:00,65.2,60.5,29.47,South,178,12.0,21.0,85,0.00,,,0.00,VWS V14.01,2013-09-18 07:30:00,
2013-09-18 02:31:00,64.6,60.5,29.44,SSE,151,7.0,8.0,87,0.00,,,0.00,VWS V14.01,2013-09-18 07:31:00,
2013-09-18 02:36:00,64.6,60.5,29.44,SE,127,2.0,8.0,87,0.00,,,0.00,VWS V14.01,2013-09-18 07:36:00,
2013-09-18 02:41:00,64.6,60.5,29.44,SE,144,5.0,8.0,87,0.00,,,0.00,VWS V14.01,2013-09-18 07:41:00,
2013-09-18 02:45:00,64.9,60.5,29.46,South,174,8.0,22.0,86,0.00,,,0.00,VWS V14.01,2013-09-18 07:45:00,
2013-09-18 02:46:00,64.5,60.5,29.44,SSE,160,3.0,5.0,87,0.00,,,0.00,VWS V14.01,2013-09-18 07:46:00,
2013-09-18 02:51:00,64.6,60.5,29.44,SSE,153,5.0,7.0,87,0.00,,,0.00,VWS V14.01,2013-09-18 07:51:00,
2013-09-18 02:56:00,64.6,60.5,29.44,SSE,160,2.0,7.0,87,0.00,,,0.00,VWS V14.01,2013-09-18 07:56:00,
2013-09-18 03:00:00,64.8,60.4,29.46,South,180,10.0,21.0,86,0.00,,,0.00,VWS V14.01,2013-09-18 08:00:00,
2013-09-18 03:01:00,64.6,60.5,29.44,SSW,192,0.0,1.0,87,0.00,,,0.00,VWS V14.01,2013-09-18 08:01:00,
2013-09-18 03:06:00,64.5,60.5,29.44,SSW,192,1.0,2.0,87,0.00,,,0.00,VWS V14.01,2013-09-18 08:06:00,
2013-09-18 03:11:00,64.3,60.3,29.44,SSW,192,1.0,2.0,87,0.00,,,0.00,VWS V14.01,2013-09-18 08:11:00,
2013-09-18 03:15:00,64.8,60.8,29.44,SSW,195,4.0,16.0,87,0.00,,,0.00,VWS V14.01,2013-09-18 08:15:00,
2013-09-18 03:16:00,64.0,60.0,29.44,NNE,30,1.0,2.0,87,0.00,,,0.00,VWS V14.01,2013-09-18 08:16:00,
2013-09-18 03:21:00,63.8,60.1,29.44,NE,51,2.0,2.0,88,0.00,,,0.00,VWS V14.01,2013-09-18 08:21:00,
2013-09-18 03:26:00,63.9,60.5,29.44,ESE,117,0.0,3.0,89,0.00,,,0.00,VWS V14.01,2013-09-18 08:26:00,
2013-09-18 03:30:00,64.6,60.5,29.44,SE,138,3.0,9.0,87,0.00,,,0.00,VWS V14.01,2013-09-18 08:30:00,
2013-09-18 03:31:00,64.0,60.6,29.44,East,99,1.0,2.0,89,0.00,,,0.00,VWS V14.01,2013-09-18 08:31:00,
2013-09-18 03:36:00,64.1,60.7,29.44,ESE,119,1.0,5.0,89,0.00,,,0.00,VWS V14.01,2013-09-18 08:36:00,
2013-09-18 03:41:00,64.2,60.5,29.45,SE,129,3.0,5.0,88,0.00,,,0.00,VWS V14.01,2013-09-18 08:41:00,
2013-09-18 03:45:00,64.5,60.5,29.44,SE,134,3.0,8.0,87,0.00,,,0.00,VWS V14.01,2013-09-18 08:45:00,
2013-09-18 03:46:00,64.2,60.5,29.45,SSE,167,5.0,6.0,88,0.00,,,0.00,VWS V14.01,2013-09-18 08:46:00,
2013-09-18 03:51:00,64.3,60.6,29.46,South,169,3.0,7.0,88,0.00,,,0.00,VWS V14.01,2013-09-18 08:51:00,
2013-09-18 03:56:00,64.2,60.5,29.45,South,169,0.0,7.0,88,0.00,,,0.00,VWS V14.01,2013-09-18 08:56:00,
2013-09-18 04:00:00,64.6,60.5,29.44,SSW,192,0.0,7.0,87,0.00,,,0.00,VWS V14.01,2013-09-18 09:00:00,
2013-09-18 04:01:00,64.1,60.4,29.44,South,169,0.0,1.0,88,0.00,,,0.00,VWS V14.01,2013-09-18 09:01:00,
2013-09-18 04:06:00,63.9,60.2,29.44,NNE,28,1.0,3.0,88,0.00,,,0.00,VWS V14.01,2013-09-18 09:06:00,
2013-09-18 04:11:00,63.6,60.2,29.43,NNE,28,0.0,3.0,89,0.00,,,0.00,VWS V14.01,2013-09-18 09:11:00,
2013-09-18 04:15:00,64.0,60.3,29.45,NNE,30,2.0,3.0,88,0.00,,,0.00,VWS V14.01,2013-09-18 09:15:00,
2013-09-18 04:16:00,63.5,60.1,29.43,NE,42,1.0,2.0,89,0.00,,,0.00,VWS V14.01,2013-09-18 09:16:00,
2013-09-18 04:20:00,63.4,60.3,29.43,NE,51,2.0,2.0,90,0.00,,,0.00,VWS V14.01,2013-09-18 09:20:00,
2013-09-18 04:25:00,63.4,60.3,29.43,SE,124,2.0,4.0,90,0.00,,,0.00,VWS V14.01,2013-09-18 09:25:00,
2013-09-18 04:30:00,63.5,60.4,29.42,ENE,78,1.0,2.0,90,0.00,,,0.00,VWS V14.01,2013-09-18 09:30:00,
2013-09-18 04:35:00,63.4,60.3,29.42,ENE,60,2.0,3.0,90,0.00,,,0.00,VWS V14.01,2013-09-18 09:35:00,
2013-09-18 04:40:00,63.3,60.2,29.41,East,85,3.0,6.0,90,0.00,,,0.00,VWS V14.01,2013-09-18 09:40:00,
2013-09-18 04:45:00,63.1,60.0,29.40,East,82,2.0,5.0,90,0.00,,,0.00,VWS V14.01,2013-09-18 09:45:00,
2013-09-18 04:50:00,62.9,59.8,29.40,ESE,109,5.0,8.0,90,0.00,,,0.00,VWS V14.01,2013-09-18 09:50:00,
2013-09-18 04:55:00,62.7,59.6,29.40,ESE,112,4.0,8.0,90,0.00,,,0.00,VWS V14.01,2013-09-18 09:55:00,
2013-09-18 05:00:00,62.5,59.8,29.41,SE,134,3.0,5.0,91,0.00,,,0.00,VWS V14.01,2013-09-18 10:00:00,
2013-09-18 05:05:00,62.5,59.8,29.41,ESE,108,4.0,8.0,91,0.00,,,0.00,VWS V14.01,2013-09-18 10:05:00,
2013-09-18 05:10:00,62.6,59.8,29.40,ESE,109,2.0,8.0,91,0.00,,,0.00,VWS V14.01,2013-09-18 10:10:00,
2013-09-18 05:15:00,62.5,59.8,29.41,SE,134,5.0,5.0,91,0.00,,,0.00,VWS V14.01,2013-09-18 10:15:00,
2013-09-18 05:20:00,62.5,59.8,29.41,SE,138,4.0,10.0,91,0.00,,,0.00,VWS V14.01,2013-09-18 10:20:00,
2013-09-18 05:25:00,62.5,59.8,29.41,SE,139,3.0,10.0,91,0.00,,,0.00,VWS V14.01,2013-09-18 10:25:00,
2013-09-18 05:30:00,62.4,59.7,29.41,SE,136,2.0,4.0,91,0.00,,,0.00,VWS V14.01,2013-09-18 10:30:00,
2013-09-18 05:35:00,62.3,59.5,29.40,SE,134,3.0,5.0,91,0.00,,,0.00,VWS V14.01,2013-09-18 10:35:00,
2013-09-18 05:40:00,62.3,59.5,29.40,SE,132,3.0,7.0,91,0.00,,,0.00,VWS V14.01,2013-09-18 10:40:00,
2013-09-18 05:45:00,62.3,59.5,29.40,East,99,3.0,3.0,91,0.00,,,0.00,VWS V14.01,2013-09-18 10:45:00,
2013-09-18 05:50:00,62.2,59.5,29.39,ESE,121,1.0,3.0,91,0.00,,,0.00,VWS V14.01,2013-09-18 10:50:00,
2013-09-18 05:55:00,62.2,59.5,29.39,SE,140,3.0,4.0,91,0.00,,,0.00,VWS V14.01,2013-09-18 10:55:00,
2013-09-18 06:00:00,62.1,59.3,29.39,SE,127,2.0,2.0,91,0.00,,,0.00,VWS V14.01,2013-09-18 11:00:00,
2013-09-18 06:05:00,62.0,59.3,29.38,SE,127,3.0,5.0,91,0.00,,,0.00,VWS V14.01,2013-09-18 11:05:00,
2013-09-18 06:10:00,62.0,59.3,29.38,SE,142,4.0,6.0,91,0.00,,,0.00,VWS V14.01,2013-09-18 11:10:00,
2013-09-18 06:15:00,62.0,59.6,29.39,ESE,113,5.0,5.0,92,0.00,,,0.00,VWS V14.01,2013-09-18 11:15:00,
2013-09-18 06:20:00,62.0,59.6,29.39,ESE,115,3.0,7.0,92,0.00,,,0.00,VWS V14.01,2013-09-18 11:20:00,
2013-09-18 06:25:00,62.0,59.6,29.39,ESE,111,5.0,8.0,92,0.00,,,0.00,VWS V14.01,2013-09-18 11:25:00,
2013-09-18 06:30:00,62.0,59.6,29.38,SE,135,7.0,8.0,92,0.00,,,0.00,VWS V14.01,2013-09-18 11:30:00,
2013-09-18 06:35:00,61.9,59.2,29.38,East,84,6.0,8.0,91,0.00,,,0.00,VWS V14.01,2013-09-18 11:35:00,
2013-09-18 06:40:00,61.8,59.1,29.37,ESE,107,4.0,8.0,91,0.00,,,0.00,VWS V14.01,2013-09-18 11:40:00,
2013-09-18 06:45:00,61.6,59.2,29.37,ESE,115,4.0,7.0,92,0.00,,,0.00,VWS V14.01,2013-09-18 11:45:00,
2013-09-18 06:50:00,61.6,59.2,29.37,East,84,4.0,8.0,92,0.00,,,0.00,VWS V14.01,2013-09-18 11:50:00,
2013-09-18 06:55:00,61.4,59.0,29.36,North,359,0.0,8.0,92,0.00,,,0.00,VWS V14.01,2013-09-18 11:55:00,
2013-09-18 07:00:00,61.3,58.9,29.37,SE,124,6.0,9.0,92,0.00,,,0.00,VWS V14.01,2013-09-18 12:00:00,
2013-09-18 07:05:00,61.1,58.7,29.36,East,88,7.0,12.0,92,0.00,,,0.00,VWS V14.01,2013-09-18 12:05:00,
2013-09-18 07:10:00,61.0,58.9,29.37,ESE,117,10.0,13.0,93,0.00,,,0.00,VWS V14.01,2013-09-18 12:10:00,
2013-09-18 07:15:00,60.8,58.7,29.37,ENE,78,8.0,13.0,93,0.00,,,0.00,VWS V14.01,2013-09-18 12:15:00,
2013-09-18 07:20:00,60.6,58.5,29.37,ESE,115,10.0,15.0,93,0.00,,,0.00,VWS V14.01,2013-09-18 12:20:00,
2013-09-18 07:25:00,60.5,58.4,29.36,East,91,6.0,15.0,93,0.00,,,0.00,VWS V14.01,2013-09-18 12:25:00,
2013-09-18 07:30:00,60.5,58.4,29.36,ESE,112,4.0,8.0,93,0.00,,,0.00,VWS V14.01,2013-09-18 12:30:00,
2013-09-18 07:35:00,60.5,58.4,29.36,SE,130,8.0,9.0,93,0.00,,,0.00,VWS V14.01,2013-09-18 12:35:00,
2013-09-18 07:40:00,60.5,58.4,29.36,SE,146,10.0,12.0,93,0.00,,,0.00,VWS V14.01,2013-09-18 12:40:00,
2013-09-18 07:45:00,60.5,58.4,29.36,ESE,122,8.0,8.0,93,0.00,,,0.00,VWS V14.01,2013-09-18 12:45:00,
2013-09-18 07:50:00,60.5,58.7,29.36,East,101,5.0,11.0,94,0.00,,,0.00,VWS V14.01,2013-09-18 12:50:00,
2013-09-18 07:55:00,60.5,58.7,29.36,SE,127,3.0,11.0,94,0.00,,,0.00,VWS V14.01,2013-09-18 12:55:00,
2013-09-18 08:00:00,60.5,58.7,29.37,SE,125,2.0,2.0,94,0.00,,,0.00,VWS V14.01,2013-09-18 13:00:00,
2013-09-18 08:05:00,60.6,58.8,29.38,SSE,154,6.0,6.0,94,0.00,,,0.00,VWS V14.01,2013-09-18 13:05:00,
2013-09-18 08:10:00,60.6,58.8,29.37,ESE,122,3.0,7.0,94,0.00,,,0.00,VWS V14.01,2013-09-18 13:10:00,
2013-09-18 08:15:00,60.6,58.8,29.37,NE,40,0.0,1.0,94,0.00,,,0.00,VWS V14.01,2013-09-18 13:15:00,
2013-09-18 08:20:00,60.5,58.7,29.37,NE,40,0.0,1.0,94,0.00,,,0.00,VWS V14.01,2013-09-18 13:20:00,
2013-09-18 08:25:00,60.6,58.8,29.36,NE,40,0.0,1.0,94,0.00,,,0.00,VWS V14.01,2013-09-18 13:25:00,
2013-09-18 08:30:00,60.7,58.9,29.37,NE,40,0.0,1.0,94,0.00,,,0.00,VWS V14.01,2013-09-18 13:30:00,
2013-09-18 08:35:00,60.9,59.1,29.37,NW,309,1.0,4.0,94,0.00,,,0.00,VWS V14.01,2013-09-18 13:35:00,
2013-09-18 08:40:00,61.1,59.3,29.38,NW,309,0.0,4.0,94,0.00,,,0.00,VWS V14.01,2013-09-18 13:40:00,
2013-09-18 08:45:00,61.4,59.6,29.38,NNW,336,1.0,2.0,94,0.00,,,0.00,VWS V14.01,2013-09-18 13:45:00,
2013-09-18 08:50:00,61.8,60.0,29.38,NNW,344,2.0,2.0,94,0.00,,,0.00,VWS V14.01,2013-09-18 13:50:00,
2013-09-18 08:55:00,61.7,59.6,29.37,NNW,344,0.0,3.0,93,0.00,,,0.00,VWS V14.01,2013-09-18 13:55:00,
2013-09-18 09:00:00,61.7,59.6,29.38,NNW,344,2.0,2.0,93,0.00,,,0.00,VWS V14.01,2013-09-18 14:00:00,
2013-09-18 09:05:00,61.8,59.7,29.38,NW,308,0.0,3.0,93,0.00,,,0.00,VWS V14.01,2013-09-18 14:05:00,
2013-09-18 09:10:00,61.9,59.8,29.39,NW,308,0.0,3.0,93,0.00,,,0.00,VWS V14.01,2013-09-18 14:10:00,
2013-09-18 09:15:00,60.6,58.8,29.37,NE,40,0.0,7.0,94,0.00,,,0.00,VWS V14.01,2013-09-18 14:15:00,
2013-09-18 09:16:00,62.4,60.6,29.38,ESE,113,0.0,2.0,94,0.00,,,0.00,VWS V14.01,2013-09-18 14:16:00,
2013-09-18 09:21:00,63.0,60.9,29.37,SE,127,4.0,5.0,93,0.00,,,0.00,VWS V14.01,2013-09-18 14:21:00,
2013-09-18 09:26:00,63.5,61.0,29.38,ESE,103,3.0,5.0,92,0.00,,,0.00,VWS V14.01,2013-09-18 14:26:00,
2013-09-18 09:30:00,60.7,58.9,29.37,NE,40,0.0,1.0,94,0.00,,,0.00,VWS V14.01,2013-09-18 14:30:00,
2013-09-18 09:31:00,64.3,61.5,29.38,East,96,1.0,1.0,91,0.00,,,0.00,VWS V14.01,2013-09-18 14:31:00,
2013-09-18 09:36:00,65.0,61.6,29.37,SE,135,0.0,3.0,89,0.00,,,0.00,VWS V14.01,2013-09-18 14:36:00,
2013-09-18 09:41:00,65.6,61.5,29.37,SE,137,3.0,6.0,87,0.00,,,0.00,VWS V14.01,2013-09-18 14:41:00,
2013-09-18 09:45:00,61.3,59.5,29.38,NW,309,1.0,4.0,94,0.00,,,0.00,VWS V14.01,2013-09-18 14:45:00,
2013-09-18 09:46:00,65.6,61.2,29.37,NNE,30,3.0,3.0,86,0.00,,,0.00,VWS V14.01,2013-09-18 14:46:00,
2013-09-18 09:51:00,65.6,61.2,29.36,NE,36,0.0,3.0,86,0.00,,,0.00,VWS V14.01,2013-09-18 14:51:00,
2013-09-18 09:56:00,65.8,61.4,29.36,ENE,63,0.0,3.0,86,0.00,,,0.00,VWS V14.01,2013-09-18 14:56:00,
2013-09-18 10:00:00,61.7,59.6,29.38,NNW,344,2.0,3.0,93,0.00,,,0.00,VWS V14.01,2013-09-18 15:00:00,
2013-09-18 10:01:00,65.6,60.9,29.38,SE,140,2.0,2.0,85,0.00,,,0.00,VWS V14.01,2013-09-18 15:01:00,
2013-09-18 10:06:00,65.4,61.0,29.38,East,91,2.0,4.0,86,0.00,,,0.00,VWS V14.01,2013-09-18 15:06:00,
2013-09-18 10:11:00,65.1,60.7,29.37,East,85,1.0,4.0,86,0.00,,,0.00,VWS V14.01,2013-09-18 15:11:00,
2013-09-18 10:15:00,62.3,60.2,29.38,ESE,113,2.0,4.0,93,0.00,,,0.00,VWS V14.01,2013-09-18 15:15:00,
2013-09-18 10:16:00,64.9,60.8,29.37,NE,54,2.0,4.0,87,0.00,,,0.00,VWS V14.01,2013-09-18 15:16:00,
2013-09-18 10:21:00,64.3,60.6,29.34,NE,34,3.0,10.0,88,0.00,,,0.00,VWS V14.01,2013-09-18 15:21:00,
2013-09-18 10:26:00,63.9,60.5,29.36,North,356,3.0,10.0,89,0.00,,,0.00,VWS V14.01,2013-09-18 15:26:00,
2013-09-18 10:30:00,64.2,61.4,29.37,East,96,1.0,5.0,91,0.00,,,0.00,VWS V14.01,2013-09-18 15:30:00,
2013-09-18 10:31:00,63.7,60.6,29.36,NNE,30,4.0,5.0,90,0.00,,,0.00,VWS V14.01,2013-09-18 15:31:00,
2013-09-18 10:36:00,63.3,60.5,29.36,East,86,2.0,9.0,91,0.00,,,0.00,VWS V14.01,2013-09-18 15:36:00,
2013-09-18 10:41:00,63.2,60.4,29.38,NNE,30,3.0,9.0,91,0.00,,,0.00,VWS V14.01,2013-09-18 15:41:00,
2013-09-18 10:45:00,65.6,61.2,29.37,ENE,68,1.0,6.0,86,0.00,,,0.00,VWS V14.01,2013-09-18 15:45:00,
2013-09-18 10:46:00,63.1,60.7,29.40,South,186,5.0,5.0,92,0.00,,,0.00,VWS V14.01,2013-09-18 15:46:00,
2013-09-18 10:51:00,63.1,60.7,29.40,SE,135,0.0,5.0,92,0.00,,,0.00,VWS V14.01,2013-09-18 15:51:00,
2013-09-18 10:56:00,63.1,61.0,29.39,SW,226,0.0,5.0,93,0.00,,,0.00,VWS V14.01,2013-09-18 15:56:00,
2013-09-18 11:00:00,65.7,61.0,29.37,ESE,105,1.0,3.0,85,0.00,,,0.00,VWS V14.01,2013-09-18 16:00:00,
2013-09-18 11:01:00,63.1,61.0,29.39,SW,226,0.0,1.0,93,0.00,,,0.00,VWS V14.01,2013-09-18 16:01:00,
2013-09-18 11:06:00,63.4,61.2,29.39,SW,226,0.0,2.0,93,0.00,,,0.00,VWS V14.01,2013-09-18 16:06:00,
2013-09-18 11:11:00,63.7,61.8,29.39,ESE,103,1.0,3.0,94,0.00,,,0.00,VWS V14.01,2013-09-18 16:11:00,
2013-09-18 11:15:00,65.0,60.9,29.37,ENE,78,4.0,5.0,87,0.00,,,0.00,VWS V14.01,2013-09-18 16:15:00,
2013-09-18 11:16:00,64.1,62.0,29.38,ESE,112,2.0,3.0,93,0.00,,,0.00,VWS V14.01,2013-09-18 16:16:00,
2013-09-18 11:21:00,64.6,62.8,29.38,South,184,0.0,5.0,94,0.00,,,0.00,VWS V14.01,2013-09-18 16:21:00,
2013-09-18 11:26:00,64.9,62.7,29.38,South,174,1.0,5.0,93,0.00,,,0.00,VWS V14.01,2013-09-18 16:26:00,
2013-09-18 11:30:00,63.7,60.6,29.36,NE,42,2.0,10.0,90,0.00,,,0.00,VWS V14.01,2013-09-18 16:30:00,
2013-09-18 11:31:00,65.1,62.9,29.38,NW,309,1.0,1.0,93,0.00,,,0.00,VWS V14.01,2013-09-18 16:31:00,
2013-09-18 11:36:00,65.1,62.6,29.37,NW,305,2.0,5.0,92,0.00,,,0.00,VWS V14.01,2013-09-18 16:36:00,
2013-09-18 11:41:00,64.9,62.1,29.37,NNE,21,2.0,5.0,91,0.00,,,0.00,VWS V14.01,2013-09-18 16:41:00,
2013-09-18 11:45:00,63.0,60.2,29.40,SE,139,2.0,9.0,91,0.00,,,0.00,VWS V14.01,2013-09-18 16:45:00,
2013-09-18 11:46:00,64.8,62.3,29.37,NE,41,3.0,3.0,92,0.00,,,0.00,VWS V14.01,2013-09-18 16:46:00,
2013-09-18 11:51:00,64.8,62.3,29.37,North,6,1.0,4.0,92,0.00,,,0.00,VWS V14.01,2013-09-18 16:51:00,
2013-09-18 11:56:00,65.0,62.5,29.37,NNE,22,2.0,4.0,92,0.00,,,0.00,VWS V14.01,2013-09-18 16:56:00,
2013-09-18 12:00:00,63.1,61.0,29.39,SW,226,0.0,5.0,93,0.00,,,0.00,VWS V14.01,2013-09-18 17:00:00,
2013-09-18 12:01:00,65.2,62.7,29.37,North,353,1.0,4.0,92,0.00,,,0.00,VWS V14.01,2013-09-18 17:01:00,
2013-09-18 12:06:00,65.4,62.9,29.37,NE,40,2.0,5.0,92,0.00,,,0.00,VWS V14.01,2013-09-18 17:06:00,
2013-09-18 12:11:00,65.5,63.0,29.37,NW,308,3.0,5.0,92,0.00,,,0.00,VWS V14.01,2013-09-18 17:11:00,
2013-09-18 12:15:00,64.1,62.2,29.38,ESE,109,3.0,3.0,94,0.00,,,0.00,VWS V14.01,2013-09-18 17:15:00,
2013-09-18 12:16:00,65.8,63.3,29.37,NNW,338,1.0,2.0,92,0.00,,,0.00,VWS V14.01,2013-09-18 17:16:00,
2013-09-18 12:21:00,65.8,63.0,29.37,North,357,2.0,5.0,91,0.00,,,0.00,VWS V14.01,2013-09-18 17:21:00,
2013-09-18 12:26:00,65.5,62.7,29.37,WNW,295,3.0,5.0,91,0.00,,,0.00,VWS V14.01,2013-09-18 17:26:00,
2013-09-18 12:30:00,65.1,62.9,29.38,ENE,68,0.0,5.0,93,0.00,,,0.00,VWS V14.01,2013-09-18 17:30:00,
2013-09-18 12:31:00,65.4,62.6,29.36,NNW,335,1.0,3.0,91,0.00,,,0.00,VWS V14.01,2013-09-18 17:31:00,
2013-09-18 12:36:00,65.4,62.6,29.36,West,277,1.0,3.0,91,0.00,,,0.00,VWS V14.01,2013-09-18 17:36:00,
2013-09-18 12:41:00,65.4,62.6,29.37,West,280,3.0,3.0,91,0.00,,,0.00,VWS V14.01,2013-09-18 17:41:00,
2013-09-18 12:45:00,64.8,62.3,29.38,NNE,21,2.0,5.0,92,0.00,,,0.00,VWS V14.01,2013-09-18 17:45:00,
2013-09-18 12:46:00,65.2,62.1,29.37,WNW,290,2.0,4.0,90,0.00,,,0.00,VWS V14.01,2013-09-18 17:46:00,
2013-09-18 12:51:00,65.0,62.2,29.37,WNW,298,1.0,4.0,91,0.00,,,0.00,VWS V14.01,2013-09-18 17:51:00,
2013-09-18 12:56:00,64.9,62.1,29.37,WNW,298,0.0,4.0,91,0.00,,,0.00,VWS V14.01,2013-09-18 17:56:00,
2013-09-18 13:00:00,65.2,62.7,29.37,North,9,3.0,4.0,92,0.00,,,0.00,VWS V14.01,2013-09-18 18:00:00,
2013-09-18 13:01:00,65.0,62.2,29.37,NNE,29,1.0,3.0,91,0.00,,,0.00,VWS V14.01,2013-09-18 18:01:00,
2013-09-18 13:06:00,65.0,62.5,29.36,NE,42,1.0,4.0,92,0.00,,,0.00,VWS V14.01,2013-09-18 18:06:00,
2013-09-18 13:11:00,65.1,62.6,29.36,North,355,1.0,4.0,92,0.00,,,0.00,VWS V14.01,2013-09-18 18:11:00,
2013-09-18 13:15:00,65.7,63.2,29.37,West,276,2.0,5.0,92,0.00,,,0.00,VWS V14.01,2013-09-18 18:15:00,
2013-09-18 13:16:00,65.3,62.8,29.36,North,1,1.0,3.0,92,0.00,,,0.00,VWS V14.01,2013-09-18 18:16:00,
2013-09-18 13:21:00,65.5,63.0,29.36,NW,311,2.0,3.0,92,0.00,,,0.00,VWS V14.01,2013-09-18 18:21:00,
2013-09-18 13:26:00,65.8,63.3,29.36,NW,315,0.0,3.0,92,0.00,,,0.00,VWS V14.01,2013-09-18 18:26:00,
2013-09-18 13:30:00,65.4,62.6,29.37,NW,322,1.0,5.0,91,0.00,,,0.00,VWS V14.01,2013-09-18 18:30:00,
2013-09-18 13:31:00,66.2,63.7,29.35,NW,308,2.0,4.0,92,0.00,,,0.00,VWS V14.01,2013-09-18 18:31:00,
2013-09-18 13:36:00,66.5,63.7,29.35,North,5,4.0,4.0,91,0.00,,,0.00,VWS V14.01,2013-09-18 18:36:00,
2013-09-18 13:41:00,66.7,63.9,29.36,North,357,2.0,4.0,91,0.00,,,0.00,VWS V14.01,2013-09-18 18:41:00,
2013-09-18 13:45:00,65.2,62.1,29.37,WNW,288,3.0,4.0,90,0.00,,,0.00,VWS V14.01,2013-09-18 18:45:00,
2013-09-18 13:46:00,66.9,63.8,29.36,NNE,13,1.0,3.0,90,0.00,,,0.00,VWS V14.01,2013-09-18 18:46:00,
2013-09-18 13:51:00,67.3,64.2,29.36,NW,325,1.0,5.0,90,0.00,,,0.00,VWS V14.01,2013-09-18 18:51:00,
2013-09-18 13:56:00,67.6,64.2,29.35,North,3,2.0,5.0,89,0.00,,,0.00,VWS V14.01,2013-09-18 18:56:00,
2013-09-18 14:00:00,65.0,62.2,29.37,NNE,30,2.0,4.0,91,0.00,,,0.00,VWS V14.01,2013-09-18 19:00:00,
2013-09-18 14:01:00,68.1,64.6,29.34,NNW,334,2.0,7.0,89,0.00,,,0.00,VWS V14.01,2013-09-18 19:01:00,
2013-09-18 14:06:00,68.4,64.6,29.35,North,352,5.0,7.0,88,0.00,,,0.00,VWS V14.01,2013-09-18 19:06:00,
2013-09-18 14:11:00,68.9,64.4,29.35,North,4,3.0,7.0,86,0.00,,,0.00,VWS V14.01,2013-09-18 19:11:00,
2013-09-18 14:15:00,65.2,62.7,29.36,North,1,1.0,4.0,92,0.00,,,0.00,VWS V14.01,2013-09-18 19:15:00,
2013-09-18 14:16:00,69.2,64.7,29.35,NE,55,2.0,4.0,86,0.00,,,0.00,VWS V14.01,2013-09-18 19:16:00,
2013-09-18 14:21:00,69.3,64.2,29.35,East,100,1.0,4.0,84,0.00,,,0.00,VWS V14.01,2013-09-18 19:21:00,
2013-09-18 14:26:00,69.4,64.6,29.35,North,357,1.0,4.0,85,0.00,,,0.00,VWS V14.01,2013-09-18 19:26:00,
2013-09-18 14:30:00,66.1,63.6,29.35,NNE,19,1.0,3.0,92,0.00,,,0.00,VWS V14.01,2013-09-18 19:30:00,
2013-09-18 14:32:00,69.3,64.2,29.35,NE,55,1.0,6.0,84,0.00,,,0.00,VWS V14.01,2013-09-18 19:32:00,
2013-09-18 14:37:00,69.4,64.6,29.35,NE,42,1.0,6.0,85,0.00,,,0.00,VWS V14.01,2013-09-18 19:37:00,
2013-09-18 14:42:00,69.7,64.9,29.35,NNE,28,2.0,6.0,85,0.00,,,0.00,VWS V14.01,2013-09-18 19:42:00,
2013-09-18 14:45:00,66.8,63.7,29.35,North,357,2.0,4.0,90,0.00,,,0.00,VWS V14.01,2013-09-18 19:45:00,
2013-09-18 14:47:00,69.8,64.7,29.35,ENE,57,1.0,1.0,84,0.00,,,0.00,VWS V14.01,2013-09-18 19:47:00,
2013-09-18 14:52:00,69.9,64.4,29.35,NNE,24,0.0,3.0,83,0.00,,,0.00,VWS V14.01,2013-09-18 19:52:00,
2013-09-18 14:57:00,69.8,64.3,29.35,North,1,2.0,4.0,83,0.00,,,0.00,VWS V14.01,2013-09-18 19:57:00,
2013-09-18 15:00:00,68.0,64.5,29.35,NNE,24,3.0,6.0,89,0.00,,,0.00,VWS V14.01,2013-09-18 20:00:00,
2013-09-18 15:02:00,69.6,64.1,29.35,North,360,1.0,2.0,83,0.00,,,0.00,VWS V14.01,2013-09-18 20:02:00,
2013-09-18 15:07:00,69.7,64.9,29.35,NE,36,1.0,3.0,85,0.00,,,0.00,VWS V14.01,2013-09-18 20:07:00,
2013-09-18 15:12:00,69.9,65.1,29.35,North,11,1.0,3.0,85,0.00,,,0.00,VWS V14.01,2013-09-18 20:12:00,
2013-09-18 15:15:00,69.1,64.6,29.35,NE,34,2.0,7.0,86,0.00,,,0.00,VWS V14.01,2013-09-18 20:15:00,
2013-09-18 15:17:00,70.1,64.9,29.35,NE,38,2.0,2.0,84,0.00,,,0.00,VWS V14.01,2013-09-18 20:17:00,
2013-09-18 15:22:00,70.3,65.1,29.35,NE,37,1.0,3.0,84,0.00,,,0.00,VWS V14.01,2013-09-18 20:22:00,
2013-09-18 15:27:00,70.2,64.7,29.35,NE,37,1.0,3.0,83,0.00,,,0.00,VWS V14.01,2013-09-18 20:27:00,
2013-09-18 15:30:00,69.4,64.3,29.35,North,3,6.0,6.0,84,0.00,,,0.00,VWS V14.01,2013-09-18 20:30:00,
2013-09-18 15:32:00,70.1,64.6,29.35,NE,47,3.0,3.0,83,0.00,,,0.00,VWS V14.01,2013-09-18 20:32:00,
2013-09-18 15:37:00,70.0,64.5,29.35,ENE,73,2.0,4.0,83,0.00,,,0.00,VWS V14.01,2013-09-18 20:37:00,
2013-09-18 15:42:00,70.0,64.5,29.35,East,99,1.0,4.0,83,0.00,,,0.00,VWS V14.01,2013-09-18 20:42:00,
2013-09-18 15:45:00,69.7,64.2,29.35,ENE,57,0.0,6.0,83,0.00,,,0.00,VWS V14.01,2013-09-18 20:45:00,
2013-09-18 15:47:00,70.0,64.2,29.35,ESE,115,4.0,5.0,82,0.00,,,0.00,VWS V14.01,2013-09-18 20:47:00,
2013-09-18 15:52:00,69.9,64.4,29.35,ESE,114,1.0,5.0,83,0.00,,,0.00,VWS V14.01,2013-09-18 20:52:00,
2013-09-18 15:57:00,70.1,64.6,29.35,SE,128,3.0,6.0,83,0.00,,,0.00,VWS V14.01,2013-09-18 20:57:00,
2013-09-18 16:00:00,69.7,64.6,29.35,North,10,1.0,4.0,84,0.00,,,0.00,VWS V14.01,2013-09-18 21:00:00,
2013-09-18 16:02:00,70.3,64.4,29.35,SE,129,2.0,3.0,82,0.00,,,0.00,VWS V14.01,2013-09-18 21:02:00,
2013-09-18 16:07:00,70.7,64.8,29.35,South,175,0.0,3.0,82,0.00,,,0.00,VWS V14.01,2013-09-18 21:07:00,
2013-09-18 16:12:00,71.1,64.9,29.35,ENE,78,0.0,3.0,81,0.00,,,0.00,VWS V14.01,2013-09-18 21:12:00,
2013-09-18 16:15:00,70.1,65.3,29.35,NE,36,1.0,3.0,85,0.00,,,0.00,VWS V14.01,2013-09-18 21:15:00,
2013-09-18 16:17:00,71.4,65.2,29.35,NE,44,1.0,3.0,81,0.00,,,0.00,VWS V14.01,2013-09-18 21:17:00,
2013-09-18 16:22:00,71.5,64.9,29.34,NW,323,1.0,4.0,80,0.00,,,0.00,VWS V14.01,2013-09-18 21:22:00,
2013-09-18 16:27:00,71.7,65.5,29.34,NE,41,1.0,4.0,81,0.00,,,0.00,VWS V14.01,2013-09-18 21:27:00,
2013-09-18 16:30:00,70.2,64.7,29.35,NE,53,3.0,3.0,83,0.00,,,0.00,VWS V14.01,2013-09-18 21:30:00,
2013-09-18 16:32:00,71.9,64.9,29.35,SSE,167,3.0,3.0,79,0.00,,,0.00,VWS V14.01,2013-09-18 21:32:00,
2013-09-18 16:37:00,72.1,65.1,29.35,South,188,1.0,5.0,79,0.00,,,0.00,VWS V14.01,2013-09-18 21:37:00,
2013-09-18 16:42:00,72.4,65.1,29.35,South,188,0.0,5.0,78,0.00,,,0.00,VWS V14.01,2013-09-18 21:42:00,
2013-09-18 16:45:00,70.1,64.6,29.35,ESE,117,3.0,4.0,83,0.00,,,0.00,VWS V14.01,2013-09-18 21:45:00,
2013-09-18 16:47:00,72.7,65.3,29.35,NNE,19,1.0,2.0,78,0.00,,,0.00,VWS V14.01,2013-09-18 21:47:00,
2013-09-18 16:52:00,72.9,65.5,29.34,North,1,0.0,4.0,78,0.00,,,0.00,VWS V14.01,2013-09-18 21:52:00,
2013-09-18 16:57:00,72.8,65.4,29.34,NW,324,1.0,4.0,78,0.00,,,0.00,VWS V14.01,2013-09-18 21:57:00,
2013-09-18 17:00:00,70.2,64.3,29.35,SE,145,1.0,6.0,82,0.00,,,0.00,VWS V14.01,2013-09-18 22:00:00,
2013-09-18 17:02:00,72.7,65.3,29.34,NW,323,1.0,5.0,78,0.00,,,0.00,VWS V14.01,2013-09-18 22:02:00,
2013-09-18 17:07:00,72.5,65.2,29.34,NNW,330,2.0,5.0,78,0.00,,,0.00,VWS V14.01,2013-09-18 22:07:00,
2013-09-18 17:12:00,72.4,65.1,29.35,NNE,28,0.0,5.0,78,0.00,,,0.00,VWS V14.01,2013-09-18 22:12:00,
2013-09-18 17:15:00,71.3,64.7,29.35,SE,129,1.0,3.0,80,0.00,,,0.00,VWS V14.01,2013-09-18 22:15:00,
2013-09-18 17:17:00,72.5,64.4,29.35,WNW,292,2.0,3.0,76,0.00,,,0.00,VWS V14.01,2013-09-18 22:17:00,
2013-09-18 17:22:00,72.6,64.5,29.35,SSE,153,0.0,3.0,76,0.00,,,0.00,VWS V14.01,2013-09-18 22:22:00,
2013-09-18 17:27:00,72.8,64.7,29.36,SSW,196,2.0,3.0,76,0.00,,,0.00,VWS V14.01,2013-09-18 22:27:00,
2013-09-18 17:30:00,71.8,65.2,29.34,SSE,152,1.0,4.0,80,0.00,,,0.00,VWS V14.01,2013-09-18 22:30:00,
2013-09-18 17:32:00,72.9,64.4,29.36,WSW,248,1.0,4.0,75,0.00,,,0.00,VWS V14.01,2013-09-18 22:32:00,
2013-09-18 17:37:00,72.8,64.3,29.36,WSW,248,2.0,5.0,75,0.00,,,0.00,VWS V14.01,2013-09-18 22:37:00,
2013-09-18 17:42:00,72.6,64.1,29.36,WSW,257,2.0,5.0,75,0.00,,,0.00,VWS V14.01,2013-09-18 22:42:00,
2013-09-18 17:45:00,72.6,65.2,29.35,South,188,0.0,5.0,78,0.00,,,0.00,VWS V14.01,2013-09-18 22:45:00,
2013-09-18 17:47:00,72.5,64.0,29.36,West,267,2.0,4.0,75,0.00,,,0.00,VWS V14.01,2013-09-18 22:47:00,
2013-09-18 17:52:00,72.7,64.6,29.36,West,267,2.0,4.0,76,0.00,,,0.00,VWS V14.01,2013-09-18 22:52:00,
2013-09-18 17:57:00,72.7,65.0,29.36,NW,324,2.0,4.0,77,0.00,,,0.00,VWS V14.01,2013-09-18 22:57:00,
2013-09-18 18:00:00,72.8,65.8,29.34,NW,319,1.0,4.0,79,0.00,,,0.00,VWS V14.01,2013-09-18 23:00:00,
2013-09-18 18:02:00,72.5,64.8,29.35,NNW,332,1.0,2.0,77,0.00,,,0.00,VWS V14.01,2013-09-18 23:02:00,
2013-09-18 18:07:00,72.1,64.4,29.36,WNW,291,3.0,4.0,77,0.00,,,0.00,VWS V14.01,2013-09-18 23:07:00,
2013-09-18 18:12:00,71.8,64.1,29.36,WNW,291,1.0,4.0,77,0.00,,,0.00,VWS V14.01,2013-09-18 23:12:00,
2013-09-18 18:15:00,72.5,65.2,29.35,WNW,292,2.0,5.0,78,0.00,,,0.00,VWS V14.01,2013-09-18 23:15:00,
2013-09-18 18:17:00,71.6,64.3,29.36,WNW,291,2.0,2.0,78,0.00,,,0.00,VWS V14.01,2013-09-18 23:17:00,
2013-09-18 18:22:00,71.4,64.1,29.36,WNW,294,1.0,2.0,78,0.00,,,0.00,VWS V14.01,2013-09-18 23:22:00,
2013-09-18 18:27:00,71.1,64.2,29.36,WNW,284,1.0,3.0,79,0.00,,,0.00,VWS V14.01,2013-09-18 23:27:00,
2013-09-18 18:30:00,73.0,65.3,29.36,SW,216,2.0,3.0,77,0.00,,,0.00,VWS V14.01,2013-09-18 23:30:00,
2013-09-18 18:33:00,70.8,64.2,29.36,WNW,282,1.0,3.0,80,0.00,,,0.00,VWS V14.01,2013-09-18 23:33:00,
2013-09-18 18:38:00,70.6,64.4,29.36,WNW,282,1.0,3.0,81,0.00,,,0.00,VWS V14.01,2013-09-18 23:38:00,
2013-09-18 18:43:00,70.6,64.4,29.36,WNW,282,0.0,3.0,81,0.00,,,0.00,VWS V14.01,2013-09-18 23:43:00,
2013-09-18 18:45:00,72.5,64.4,29.36,West,269,1.0,5.0,76,0.00,,,0.00,VWS V14.01,2013-09-18 23:45:00,
2013-09-18 18:48:00,70.8,64.2,29.36,WNW,282,0.0,1.0,80,0.00,,,0.00,VWS V14.01,2013-09-18 23:48:00,
2013-09-18 18:53:00,71.0,64.4,29.36,WNW,282,1.0,2.0,80,0.00,,,0.00,VWS V14.01,2013-09-18 23:53:00,
2013-09-18 18:58:00,71.1,64.5,29.36,WNW,282,0.0,2.0,80,0.00,,,0.00,VWS V14.01,2013-09-18 23:58:00,
2013-09-18 19:00:00,72.6,64.9,29.35,NNW,332,1.0,4.0,77,0.00,,,0.00,VWS V14.01,2013-09-19 00:00:00,
2013-09-18 19:03:00,71.0,64.4,29.36,WNW,282,0.0,1.0,80,0.00,,,0.00,VWS V14.01,2013-09-19 00:03:00,
2013-09-18 19:08:00,70.9,64.0,29.36,WNW,282,1.0,1.0,79,0.00,,,0.00,VWS V14.01,2013-09-19 00:08:00,
2013-09-18 19:13:00,70.9,64.0,29.36,WNW,282,0.0,1.0,79,0.00,,,0.00,VWS V14.01,2013-09-19 00:13:00,
2013-09-18 19:15:00,71.7,64.4,29.36,WNW,291,1.0,4.0,78,0.00,,,0.00,VWS V14.01,2013-09-19 00:15:00,
2013-09-18 19:18:00,70.9,64.3,29.36,WNW,282,0.0,1.0,80,0.00,,,0.00,VWS V14.01,2013-09-19 00:18:00,
2013-09-18 19:23:00,70.8,63.9,29.37,WNW,298,1.0,3.0,79,0.00,,,0.00,VWS V14.01,2013-09-19 00:23:00,
2013-09-18 19:28:00,70.6,64.0,29.37,WNW,299,0.0,3.0,80,0.00,,,0.00,VWS V14.01,2013-09-19 00:28:00,
2013-09-18 19:30:00,71.0,64.4,29.36,NW,304,1.0,3.0,80,0.00,,,0.00,VWS V14.01,2013-09-19 00:30:00,
2013-09-18 19:33:00,70.4,63.8,29.36,WNW,299,0.0,1.0,80,0.00,,,0.00,VWS V14.01,2013-09-19 00:33:00,
2013-09-18 19:38:00,70.1,63.5,29.36,WNW,299,1.0,2.0,80,0.00,,,0.00,VWS V14.01,2013-09-19 00:38:00,
2013-09-18 19:43:00,69.6,63.4,29.37,WNW,303,2.0,3.0,81,0.00,,,0.00,VWS V14.01,2013-09-19 00:43:00,
2013-09-18 19:45:00,70.7,64.5,29.36,WNW,282,0.0,3.0,81,0.00,,,0.00,VWS V14.01,2013-09-19 00:45:00,
2013-09-18 19:48:00,68.9,63.1,29.38,WNW,303,1.0,2.0,82,0.00,,,0.00,VWS V14.01,2013-09-19 00:48:00,
2013-09-18 19:53:00,68.6,63.1,29.37,WNW,303,0.0,2.0,83,0.00,,,0.00,VWS V14.01,2013-09-19 00:53:00,
2013-09-18 19:58:00,68.3,62.8,29.38,WNW,303,0.0,2.0,83,0.00,,,0.00,VWS V14.01,2013-09-19 00:58:00,
2013-09-18 20:00:00,71.1,64.5,29.36,WNW,282,1.0,2.0,80,0.00,,,0.00,VWS V14.01,2013-09-19 01:00:00,
2013-09-18 20:03:00,68.0,62.5,29.38,WNW,303,0.0,2.0,83,0.00,,,0.00,VWS V14.01,2013-09-19 01:03:00,
2013-09-18 20:08:00,67.8,62.7,29.38,WNW,303,0.0,2.0,84,0.00,,,0.00,VWS V14.01,2013-09-19 01:08:00,
2013-09-18 20:13:00,67.6,62.5,29.38,WNW,303,0.0,2.0,84,0.00,,,0.00,VWS V14.01,2013-09-19 01:13:00,
2013-09-18 20:15:00,70.9,64.0,29.36,WNW,282,0.0,1.0,79,0.00,,,0.00,VWS V14.01,2013-09-19 01:15:00,
2013-09-18 20:18:00,67.5,62.7,29.38,North,1,1.0,3.0,85,0.00,,,0.00,VWS V14.01,2013-09-19 01:18:00,
2013-09-18 20:23:00,67.3,62.5,29.38,North,1,1.0,3.0,85,0.00,,,0.00,VWS V14.01,2013-09-19 01:23:00,
2013-09-18 20:28:00,66.9,62.5,29.38,North,9,2.0,3.0,86,0.00,,,0.00,VWS V14.01,2013-09-19 01:28:00,
2013-09-18 20:30:00,70.5,63.9,29.37,WNW,299,1.0,3.0,80,0.00,,,0.00,VWS V14.01,2013-09-19 01:30:00,
2013-09-18 20:33:00,66.6,62.5,29.38,North,350,1.0,2.0,87,0.00,,,0.00,VWS V14.01,2013-09-19 01:33:00,
2013-09-18 20:38:00,66.3,62.2,29.38,North,349,1.0,4.0,87,0.00,,,0.00,VWS V14.01,2013-09-19 01:38:00,
2013-09-18 20:43:00,66.0,62.2,29.38,North,352,1.0,4.0,88,0.00,,,0.00,VWS V14.01,2013-09-19 01:43:00,
2013-09-18 20:45:00,69.3,63.1,29.37,WNW,303,1.0,3.0,81,0.00,,,0.00,VWS V14.01,2013-09-19 01:45:00,
2013-09-18 20:48:00,65.9,62.5,29.38,North,350,0.0,2.0,89,0.00,,,0.00,VWS V14.01,2013-09-19 01:48:00,
2013-09-18 20:53:00,65.7,62.3,29.38,North,353,0.0,3.0,89,0.00,,,0.00,VWS V14.01,2013-09-19 01:53:00,
2013-09-18 20:58:00,65.4,62.0,29.38,North,353,0.0,3.0,89,0.00,,,0.00,VWS V14.01,2013-09-19 01:58:00,
2013-09-18 21:00:00,68.2,62.7,29.38,WNW,303,0.0,2.0,83,0.00,,,0.00,VWS V14.01,2013-09-19 02:00:00,
2013-09-18 21:03:00,65.1,61.7,29.38,NNW,327,1.0,2.0,89,0.00,,,0.00,VWS V14.01,2013-09-19 02:03:00,
2013-09-18 21:08:00,64.7,61.6,29.38,NNW,328,0.0,2.0,90,0.00,,,0.00,VWS V14.01,2013-09-19 02:08:00,
2013-09-18 21:13:00,64.4,61.3,29.38,NNW,328,1.0,2.0,90,0.00,,,0.00,VWS V14.01,2013-09-19 02:13:00,
2013-09-18 21:15:00,67.6,62.8,29.38,NW,322,1.0,2.0,85,0.00,,,0.00,VWS V14.01,2013-09-19 02:15:00,
2013-09-18 21:18:00,64.2,61.4,29.38,NNW,328,0.0,2.0,91,0.00,,,0.00,VWS V14.01,2013-09-19 02:18:00,
2013-09-18 21:23:00,64.2,61.4,29.39,NNW,328,0.0,2.0,91,0.00,,,0.00,VWS V14.01,2013-09-19 02:23:00,
2013-09-18 21:28:00,64.3,61.8,29.39,NNW,332,0.0,4.0,92,0.00,,,0.00,VWS V14.01,2013-09-19 02:28:00,
2013-09-18 21:30:00,66.8,62.4,29.38,NNW,337,2.0,3.0,86,0.00,,,0.00,VWS V14.01,2013-09-19 02:30:00,
2013-09-18 21:33:00,64.2,61.7,29.40,NNW,332,0.0,2.0,92,0.00,,,0.00,VWS V14.01,2013-09-19 02:33:00,
2013-09-18 21:38:00,64.0,61.5,29.40,NNW,332,0.0,2.0,92,0.00,,,0.00,VWS V14.01,2013-09-19 02:38:00,
2013-09-18 21:43:00,63.9,61.4,29.40,West,277,2.0,3.0,92,0.00,,,0.00,VWS V14.01,2013-09-19 02:43:00,
2013-09-18 21:45:00,66.0,62.2,29.38,North,352,0.0,4.0,88,0.00,,,0.00,VWS V14.01,2013-09-19 02:45:00,
2013-09-18 21:48:00,63.8,61.7,29.41,WNW,282,1.0,2.0,93,0.00,,,0.00,VWS V14.01,2013-09-19 02:48:00,
2013-09-18 21:54:00,63.6,61.5,29.41,WNW,282,0.0,2.0,93,0.00,,,0.00,VWS V14.01,2013-09-19 02:54:00,
2013-09-18 21:59:00,63.4,61.0,29.42,WNW,282,0.0,2.0,92,0.00,,,0.00,VWS V14.01,2013-09-19 02:59:00,
2013-09-18 22:00:00,65.3,61.9,29.38,North,353,0.0,3.0,89,0.00,,,0.00,VWS V14.01,2013-09-19 03:00:00,
2013-09-18 22:04:00,63.3,61.2,29.41,WNW,282,0.0,2.0,93,0.00,,,0.00,VWS V14.01,2013-09-19 03:04:00,
2013-09-18 22:09:00,63.3,61.5,29.41,ENE,59,1.0,3.0,94,0.00,,,0.00,VWS V14.01,2013-09-19 03:09:00,
2013-09-18 22:14:00,63.5,61.7,29.42,NE,49,1.0,3.0,94,0.00,,,0.00,VWS V14.01,2013-09-19 03:14:00,
2013-09-18 22:15:00,64.4,61.3,29.38,NNW,328,0.0,2.0,90,0.00,,,0.00,VWS V14.01,2013-09-19 03:15:00,
2013-09-18 22:19:00,63.6,61.8,29.42,ENE,68,0.0,2.0,94,0.00,,,0.00,VWS V14.01,2013-09-19 03:19:00,
2013-09-18 22:24:00,63.7,61.8,29.42,East,90,3.0,4.0,94,0.00,,,0.00,VWS V14.01,2013-09-19 03:24:00,
2013-09-18 22:29:00,63.9,62.0,29.41,ENE,73,2.0,4.0,94,0.00,,,0.00,VWS V14.01,2013-09-19 03:29:00,
2013-09-18 22:30:00,64.3,61.8,29.39,NNW,332,1.0,4.0,92,0.00,,,0.00,VWS V14.01,2013-09-19 03:30:00,
2013-09-18 22:34:00,63.8,62.0,29.41,ENE,73,0.0,3.0,94,0.00,,,0.00,VWS V14.01,2013-09-19 03:34:00,
2013-09-18 22:39:00,63.7,61.8,29.41,NE,53,0.0,3.0,94,0.00,,,0.00,VWS V14.01,2013-09-19 03:39:00,
2013-09-18 22:44:00,63.5,61.7,29.41,NE,48,2.0,3.0,94,0.00,,,0.00,VWS V14.01,2013-09-19 03:44:00,
2013-09-18 22:45:00,63.9,61.4,29.40,WNW,282,2.0,3.0,92,0.00,,,0.00,VWS V14.01,2013-09-19 03:45:00,
2013-09-18 22:49:00,63.2,61.4,29.41,NE,48,0.0,2.0,94,0.00,,,0.00,VWS V14.01,2013-09-19 03:49:00,
2013-09-18 22:54:00,63.1,61.3,29.41,NE,48,0.0,2.0,94,0.00,,,0.00,VWS V14.01,2013-09-19 03:54:00,
2013-09-18 22:59:00,63.1,61.6,29.41,NE,48,0.0,2.0,95,0.00,,,0.00,VWS V14.01,2013-09-19 03:59:00,
2013-09-18 23:00:00,63.4,61.2,29.42,WNW,282,1.0,2.0,93,0.00,,,0.00,VWS V14.01,2013-09-19 04:00:00,
2013-09-18 23:01:00,63.1,61.6,29.41,East,88,2.0,3.0,95,0.00,,,0.00,VWS V14.01,2013-09-19 04:01:00,
2013-09-18 23:06:00,63.5,62.0,29.41,East,88,2.0,3.0,95,0.00,,,0.00,VWS V14.01,2013-09-19 04:06:00,
2013-09-18 23:08:00,63.6,62.1,29.41,East,88,1.0,3.0,95,0.00,,,0.00,VWS V14.01,2013-09-19 04:08:00,
2013-09-18 23:13:00,64.0,62.5,29.41,East,97,1.0,4.0,95,0.00,,,0.00,VWS V14.01,2013-09-19 04:13:00,
2013-09-18 23:15:00,63.5,61.7,29.42,ENE,59,1.0,3.0,94,0.00,,,0.00,VWS V14.01,2013-09-19 04:15:00,
2013-09-18 23:18:00,64.1,62.5,29.42,SSW,207,0.0,4.0,95,0.00,,,0.00,VWS V14.01,2013-09-19 04:18:00,
2013-09-18 23:23:00,64.1,62.5,29.43,South,173,2.0,4.0,95,0.00,,,0.00,VWS V14.01,2013-09-19 04:23:00,
2013-09-18 23:28:00,63.8,62.2,29.42,SSW,200,1.0,4.0,95,0.00,,,0.00,VWS V14.01,2013-09-19 04:28:00,
2013-09-18 23:30:00,63.9,62.0,29.41,East,95,2.0,4.0,94,0.00,,,0.00,VWS V14.01,2013-09-19 04:30:00,
2013-09-18 23:33:00,63.7,62.2,29.43,West,263,3.0,3.0,95,0.00,,,0.00,VWS V14.01,2013-09-19 04:33:00,
2013-09-18 23:38:00,63.5,62.0,29.43,West,269,1.0,4.0,95,0.00,,,0.00,VWS V14.01,2013-09-19 04:38:00,
2013-09-18 23:43:00,63.3,61.8,29.42,West,261,3.0,4.0,95,0.00,,,0.00,VWS V14.01,2013-09-19 04:43:00,
2013-09-18 23:45:00,63.5,61.7,29.40,NE,48,1.0,3.0,94,0.00,,,0.00,VWS V14.01,2013-09-19 04:45:00,
2013-09-18 23:48:00,63.2,61.7,29.42,WNW,282,3.0,3.0,95,0.00,,,0.00,VWS V14.01,2013-09-19 04:48:00,
2013-09-18 23:53:00,63.1,61.6,29.42,WNW,284,3.0,4.0,95,0.00,,,0.00,VWS V14.01,2013-09-19 04:53:00,
2013-09-18 23:58:00,62.9,61.4,29.43,WNW,284,3.0,4.0,95,0.00,,,0.00,VWS V14.01,2013-09-19 04:58:00,